Time;durP1;ratioP1;P1;durP2;ratioP2;P2;SDS_P1;SDS_P2;PMS_P1;PMS_P2;Temp;Humidity;BMP_temperature;BMP_pressure;BME280_temperature;BME280_humidity;BME280_pressure;Samples;Min_cycle;Max_cycle;Signal;HPM_P1;HPM_P2
2022/03/10 00:01:51;;;;;;;0.77;0.70;;;-0.60;99.90;;;-143.19;100.00;53775.09;4964948;28;20201;-74
2022/03/10 00:04:19;;;;;;;1.73;1.08;;;-0.60;99.90;;;-143.19;100.00;53775.09;4971689;28;20216;-74
2022/03/10 00:06:47;;;;;;;0.60;0.60;;;-0.50;99.90;;;-143.19;100.00;53775.09;4971200;28;20216;-74
2022/03/10 00:09:15;;;;;;;2.78;1.42;;;-0.50;99.90;;;-143.19;100.00;53775.09;4973222;28;20249;-74
2022/03/10 00:11:43;;;;;;;1.02;0.80;;;-0.40;99.90;;;-143.19;100.00;53775.09;4963102;28;20580;-75
2022/03/10 00:14:11;;;;;;;1.02;0.70;;;-0.30;99.90;;;-143.19;100.00;53775.09;4955786;28;20238;-74
2022/03/10 00:16:42;;;;;;;1.42;0.88;;;-0.20;99.90;;;-143.19;100.00;53775.09;4968689;28;20281;-74
2022/03/10 00:19:12;;;;;;;1.75;1.02;;;-0.20;99.90;;;-143.19;100.00;53775.09;4963158;28;20322;-74
2022/03/10 00:21:44;;;;;;;0.60;0.60;;;-0.30;99.90;;;-143.19;100.00;53775.09;4958620;28;20202;-74
2022/03/10 00:24:12;;;;;;;1.52;1.00;;;-0.40;99.90;;;-143.19;100.00;53775.09;4966688;28;20285;-74
2022/03/10 00:26:42;;;;;;;0.80;0.70;;;-0.50;99.90;;;-143.19;100.00;53775.09;4959402;28;20217;-74
2022/03/10 00:29:10;;;;;;;1.25;0.88;;;-0.50;99.90;;;-143.19;100.00;53775.09;4966806;28;20229;-74
2022/03/10 00:31:40;;;;;;;1.58;1.00;;;-0.60;99.90;;;-143.19;100.00;53775.09;4979900;28;20201;-74
2022/03/10 00:34:08;;;;;;;1.40;0.88;;;-0.60;99.90;;;-143.19;100.00;53775.09;4972403;28;20596;-74
2022/03/10 00:36:36;;;;;;;1.42;0.82;;;-0.50;99.90;;;-143.19;100.00;53775.09;4972464;28;20209;-74
2022/03/10 00:39:05;;;;;;;3.65;1.30;;;-0.50;99.90;;;-143.19;100.00;53775.09;4971211;28;20225;-75
2022/03/10 00:41:33;;;;;;;1.83;0.90;;;-0.50;99.90;;;-143.19;100.00;53775.09;4972765;28;20244;-73
2022/03/10 00:44:00;;;;;;;1.15;0.70;;;-0.40;99.90;;;-143.19;100.00;53775.09;4975642;28;20213;-73
2022/03/10 00:46:29;;;;;;;1.23;0.80;;;-0.50;99.90;;;-143.19;100.00;53775.09;4973638;28;20201;-73
2022/03/10 00:48:58;;;;;;;3.28;1.63;;;-0.50;99.90;;;-143.19;100.00;53775.09;4988095;28;20213;-73
2022/03/10 00:51:26;;;;;;;1.02;0.77;;;-0.40;99.90;;;-143.19;100.00;53775.09;4955835;28;20208;-73
2022/03/10 00:53:54;;;;;;;1.73;1.05;;;-0.50;99.90;;;-143.19;100.00;53775.09;4955979;28;20709;-73
2022/03/10 00:56:22;;;;;;;0.60;0.50;;;-0.60;99.90;;;-143.19;100.00;53775.09;4937210;29;20202;-73
2022/03/10 00:58:50;;;;;;;4.30;1.88;;;-0.60;99.90;;;-143.19;100.00;53775.09;4957723;28;20205;-73
2022/03/10 01:01:18;;;;;;;0.80;0.70;;;-0.70;99.90;;;-143.19;100.00;53775.09;4971707;28;20213;-73
2022/03/10 01:03:46;;;;;;;0.70;0.70;;;-0.70;99.90;;;-143.19;100.00;53775.09;4954912;28;20209;-73
2022/03/10 01:06:14;;;;;;;1.63;1.08;;;-0.80;99.90;;;-143.19;100.00;53775.09;4972661;28;20212;-73
2022/03/10 01:08:42;;;;;;;0.95;0.80;;;-0.80;99.90;;;-143.19;100.00;53775.09;4961856;28;20217;-73
2022/03/10 01:11:11;;;;;;;1.33;0.88;;;-0.90;99.90;;;-143.19;100.00;53775.09;4970027;28;20212;-73
2022/03/10 01:13:39;;;;;;;1.15;0.80;;;-0.90;99.90;;;-143.19;100.00;53775.09;4934022;28;20229;-73
2022/03/10 01:16:07;;;;;;;1.40;1.00;;;-0.90;99.90;;;-143.19;100.00;53775.09;4974994;28;20197;-73
2022/03/10 01:18:35;;;;;;;1.00;0.70;;;-0.90;99.90;;;-143.19;100.00;53775.09;4954624;28;20212;-75
2022/03/10 01:21:03;;;;;;;2.05;1.25;;;-0.90;99.90;;;-143.19;100.00;53775.09;4971941;28;20233;-73
2022/03/10 01:23:32;;;;;;;0.60;0.60;;;-0.90;99.90;;;-143.19;100.00;53775.09;4973694;28;20220;-73
2022/03/10 01:26:00;;;;;;;1.10;1.02;;;-1.00;99.90;;;-143.19;100.00;53775.09;4979583;28;20198;-73
2022/03/10 01:28:29;;;;;;;1.10;0.82;;;-0.90;99.90;;;-143.19;100.00;53775.09;4939278;28;20206;-73
2022/03/10 01:30:57;;;;;;;1.05;0.80;;;-0.90;99.90;;;-143.19;100.00;53775.09;4956738;28;20221;-73
2022/03/10 01:33:25;;;;;;;0.85;0.70;;;-0.80;99.90;;;-143.19;100.00;53775.09;4962570;28;20229;-74
2022/03/10 01:35:53;;;;;;;1.45;0.95;;;-0.90;99.90;;;-143.19;100.00;53775.09;4966522;28;20209;-73
2022/03/10 01:38:21;;;;;;;0.60;0.60;;;-0.90;99.90;;;-143.19;100.00;53775.09;4962035;28;20217;-73
2022/03/10 01:40:49;;;;;;;2.30;1.77;;;-0.90;99.90;;;-143.19;100.00;53775.09;4971056;28;20240;-73
2022/03/10 01:43:17;;;;;;;2.03;1.25;;;-0.90;99.90;;;-143.19;100.00;53775.09;4967473;28;20212;-73
2022/03/10 01:45:45;;;;;;;1.25;0.80;;;-0.90;99.90;;;-143.19;100.00;53775.09;4967929;28;20231;-73
2022/03/10 01:48:13;;;;;;;2.05;1.52;;;-0.90;99.90;;;-143.19;100.00;53775.09;4971546;28;20201;-73
2022/03/10 01:50:40;;;;;;;0.68;0.68;;;-0.90;99.90;;;-143.19;100.00;53775.09;4971113;28;20232;-73
2022/03/10 01:53:08;;;;;;;0.65;0.60;;;-1.00;99.90;;;-143.19;100.00;53775.09;4943422;28;20354;-73
2022/03/10 01:55:37;;;;;;;1.33;0.95;;;-1.10;99.90;;;-143.19;100.00;53775.09;4964482;28;20216;-73
2022/03/10 01:58:05;;;;;;;2.95;2.75;;;-1.20;99.90;;;-143.19;100.00;53775.09;4968248;28;20216;-73
2022/03/10 02:00:34;;;;;;;2.13;1.30;;;-1.30;99.90;;;-143.19;100.00;53775.09;4939470;28;20235;-73
2022/03/10 02:03:02;;;;;;;1.10;0.80;;;-1.30;99.90;;;-143.19;100.00;53775.09;4972727;28;20212;-73
2022/03/10 02:05:31;;;;;;;0.60;0.60;;;-1.30;99.90;;;-143.19;100.00;53775.09;4972640;28;20709;-73
2022/03/10 02:10:46;;;;;;;1.33;1.02;;;-1.30;99.90;;;-143.19;100.00;53775.09;4951436;28;20225;-73
2022/03/10 02:13:14;;;;;;;0.80;0.80;;;-1.40;99.90;;;-143.19;100.00;53775.09;4953999;28;20213;-73
2022/03/10 02:18:29;;;;;;;2.17;1.30;;;-1.50;99.90;;;-143.19;100.00;53775.09;4977632;28;20217;-73
2022/03/10 02:20:57;;;;;;;1.25;1.05;;;-1.60;99.90;;;-143.19;100.00;53775.09;4970738;28;20233;-73
2022/03/10 02:23:26;;;;;;;0.90;0.80;;;-1.50;99.90;;;-143.19;100.00;53775.09;4972293;28;20208;-73
2022/03/10 02:25:59;;;;;;;1.52;1.10;;;-1.50;99.90;;;-143.19;100.00;53775.09;4967314;28;20228;-73
2022/03/10 02:28:28;;;;;;;1.63;1.10;;;-1.50;99.90;;;-143.19;100.00;53775.09;4982936;28;20213;-72
2022/03/10 02:30:56;;;;;;;1.25;0.98;;;-1.50;99.90;;;-143.19;100.00;53775.09;4956410;28;20225;-73
2022/03/10 02:33:24;;;;;;;1.83;1.30;;;-1.50;99.90;;;-143.19;100.00;53775.09;4956421;28;20209;-73
2022/03/10 02:35:52;;;;;;;0.80;0.73;;;-1.50;99.90;;;-143.19;100.00;53775.09;4961402;28;20197;-73
2022/03/10 02:38:20;;;;;;;1.42;1.08;;;-1.40;99.90;;;-143.19;100.00;53775.09;4968900;28;20221;-73
2022/03/10 02:40:48;;;;;;;1.33;1.00;;;-1.40;99.90;;;-143.19;100.00;53775.09;4967174;28;20233;-73
2022/03/10 02:43:18;;;;;;;2.25;1.42;;;-1.50;99.90;;;-143.19;100.00;53775.09;4956700;28;20216;-73
2022/03/10 02:45:47;;;;;;;1.23;0.90;;;-1.50;99.90;;;-143.19;100.00;53775.09;4973015;28;20209;-73
2022/03/10 02:48:16;;;;;;;1.52;1.15;;;-0.80;99.90;;;-143.19;100.00;53775.09;4971770;28;20205;-73
2022/03/10 02:50:45;;;;;;;1.65;1.17;;;-0.60;99.90;;;-143.19;100.00;53775.09;4965321;28;20237;-73
2022/03/10 02:53:15;;;;;;;0.98;0.80;;;-1.50;99.90;;;-143.19;100.00;53775.09;4974990;28;20213;-73
2022/03/10 02:55:44;;;;;;;1.10;0.90;;;-1.50;99.90;;;-143.19;100.00;53775.09;4974336;28;20239;-73
2022/03/10 02:58:12;;;;;;;0.80;0.70;;;-1.60;99.90;;;-143.19;100.00;53775.09;4972405;28;20198;-73
2022/03/10 03:00:40;;;;;;;2.22;1.23;;;-1.70;99.90;;;-143.19;100.00;53775.09;4958322;28;20246;-73
2022/03/10 03:03:09;;;;;;;1.30;0.93;;;-1.60;99.90;;;-143.19;100.00;53775.09;4964396;28;20210;-73
2022/03/10 03:05:37;;;;;;;1.02;0.80;;;-1.60;99.90;;;-143.19;100.00;53775.09;4972522;28;20205;-73
2022/03/10 03:08:06;;;;;;;2.00;1.15;;;-1.60;99.90;;;-143.19;100.00;53775.09;4972731;28;20666;-73
2022/03/10 03:10:36;;;;;;;0.95;0.75;;;-1.60;99.90;;;-143.19;100.00;53775.09;4978769;28;20225;-73
2022/03/10 03:13:08;;;;;;;1.42;1.05;;;-0.90;99.90;;;-143.19;100.00;53775.09;4954221;28;20209;-73
2022/03/10 03:15:36;;;;;;;1.35;0.93;;;-1.70;99.90;;;-143.19;100.00;53775.09;4973724;28;20259;-73
2022/03/10 03:18:04;;;;;;;1.08;0.80;;;-1.80;99.90;;;-143.19;100.00;53775.09;4975918;28;20202;-73
2022/03/10 03:20:32;;;;;;;1.35;0.95;;;-1.80;99.90;;;-143.19;100.00;53775.09;4969798;28;20225;-73
2022/03/10 03:23:00;;;;;;;1.42;0.98;;;-1.80;99.90;;;-143.19;100.00;53775.09;4962570;28;20198;-73
2022/03/10 03:25:28;;;;;;;1.65;1.02;;;-1.90;99.90;;;-143.19;100.00;53775.09;4953662;28;20220;-73
2022/03/10 03:27:56;;;;;;;0.60;0.60;;;-1.80;99.90;;;-143.19;100.00;53775.09;4980493;28;20205;-73
2022/03/10 03:30:24;;;;;;;1.08;0.80;;;-1.80;99.90;;;-143.19;100.00;53775.09;4984615;28;20236;-73
2022/03/10 03:32:52;;;;;;;1.13;0.82;;;-1.10;99.90;;;-143.19;100.00;53775.09;4966768;28;20572;-73
2022/03/10 03:35:19;;;;;;;2.17;1.40;;;-1.90;99.90;;;-143.19;100.00;53775.09;4971073;28;20225;-73
2022/03/10 03:37:47;;;;;;;0.95;0.73;;;-2.00;99.90;;;-143.19;100.00;53775.09;4971483;28;20205;-73
2022/03/10 03:40:15;;;;;;;1.25;0.90;;;-2.00;99.90;;;-143.19;100.00;53775.09;4986102;28;20240;-73
2022/03/10 03:42:43;;;;;;;1.98;1.42;;;-2.00;99.90;;;-143.19;100.00;53775.09;4967652;28;20201;-73
2022/03/10 03:45:11;;;;;;;0.90;0.80;;;-2.00;99.90;;;-143.19;100.00;53775.09;4973524;28;20224;-73
2022/03/10 03:47:39;;;;;;;2.15;1.35;;;-2.10;99.90;;;-143.19;100.00;53775.09;4966111;28;20561;-73
2022/03/10 03:50:12;;;;;;;1.13;0.82;;;-2.10;99.90;;;-143.19;100.00;53775.09;4957605;28;20228;-73
2022/03/10 03:52:40;;;;;;;1.50;1.00;;;-2.10;99.90;;;-143.19;100.00;53775.09;4939801;28;20205;-73
2022/03/10 03:55:12;;;;;;;1.25;0.90;;;-2.10;99.90;;;-143.19;100.00;53775.09;4951497;28;20247;-73
2022/03/10 03:57:41;;;;;;;1.42;0.95;;;-2.10;99.90;;;-143.19;100.00;53775.09;4955769;28;20209;-73
2022/03/10 04:00:15;;;;;;;1.98;1.25;;;-2.20;99.90;;;-143.19;100.00;53775.09;4971368;28;20244;-73
2022/03/10 04:02:44;;;;;;;1.30;1.00;;;-2.20;99.90;;;-143.19;100.00;53775.09;4968898;28;20205;-73
2022/03/10 04:05:15;;;;;;;2.70;1.45;;;-2.20;99.90;;;-143.19;100.00;53775.09;4955237;28;20210;-73
2022/03/10 04:07:42;;;;;;;2.78;1.38;;;-2.20;99.90;;;-143.19;100.00;53775.09;4952000;28;20209;-73
2022/03/10 04:10:10;;;;;;;1.05;0.90;;;-2.20;99.90;;;-143.19;100.00;53775.09;4949548;28;20241;-73
2022/03/10 04:12:39;;;;;;;3.10;1.75;;;-2.20;99.90;;;-143.19;100.00;53775.09;4965416;28;20204;-74
2022/03/10 04:15:08;;;;;;;2.83;1.55;;;-2.10;99.90;;;-143.19;100.00;53775.09;4970110;28;20221;-75
2022/03/10 04:17:36;;;;;;;2.63;1.48;;;-2.10;99.90;;;-143.19;100.00;53775.09;4956936;28;20221;-74
2022/03/10 04:20:08;;;;;;;1.70;1.10;;;-2.20;99.90;;;-143.19;100.00;53775.09;4973429;28;20233;-74
2022/03/10 04:22:36;;;;;;;1.65;1.00;;;-2.20;99.90;;;-143.19;100.00;53775.09;4973775;28;20209;-74
2022/03/10 04:25:05;;;;;;;1.95;1.08;;;-2.20;99.90;;;-143.19;100.00;53775.09;4955801;28;20205;-74
2022/03/10 04:27:34;;;;;;;1.92;0.98;;;-2.30;99.90;;;-143.19;100.00;53775.09;4971962;28;20205;-74
2022/03/10 04:30:06;;;;;;;1.98;1.08;;;-2.40;99.90;;;-143.19;100.00;53775.09;4972351;28;20241;-74
2022/03/10 04:32:46;;;;;;;3.72;1.67;;;-2.40;99.90;;;-143.19;100.00;53775.09;4966461;28;20201;-74
2022/03/10 04:35:18;;;;;;;1.35;0.88;;;-2.40;99.90;;;-143.19;100.00;53775.09;4973284;28;20225;-74
2022/03/10 04:37:50;;;;;;;2.08;1.10;;;-2.40;99.90;;;-143.19;100.00;53775.09;4972559;28;20205;-74
2022/03/10 04:40:20;;;;;;;1.95;1.10;;;-1.80;99.90;;;-143.19;100.00;53775.09;4970556;28;20601;-74
2022/03/10 04:42:50;;;;;;;1.92;1.00;;;-2.50;99.90;;;-143.19;100.00;53775.09;4972698;28;20205;-74
2022/03/10 04:45:18;;;;;;;1.55;0.90;;;-2.50;99.90;;;-143.19;100.00;53775.09;4972530;28;20209;-75
2022/03/10 04:47:46;;;;;;;2.88;1.33;;;-2.50;99.90;;;-143.19;100.00;53775.09;4972492;28;20204;-75
2022/03/10 04:50:17;;;;;;;1.63;0.90;;;-2.50;99.90;;;-143.19;100.00;53775.09;4971469;28;20236;-74
2022/03/10 04:52:45;;;;;;;2.40;1.20;;;-2.50;99.90;;;-143.19;100.00;53775.09;4970873;28;20208;-74
2022/03/10 04:55:14;;;;;;;2.45;1.27;;;-2.50;99.90;;;-143.19;100.00;53775.09;4971165;28;20236;-75
2022/03/10 04:57:42;;;;;;;2.35;1.17;;;-2.50;99.90;;;-143.19;100.00;53775.09;4972518;28;20212;-75
2022/03/10 05:00:11;;;;;;;3.58;1.60;;;-2.40;99.90;;;-143.19;100.00;53775.09;4971420;28;20248;-75
2022/03/10 05:02:41;;;;;;;1.98;1.00;;;-2.50;99.90;;;-143.19;100.00;53775.09;4955545;28;20205;-75
2022/03/10 05:05:12;;;;;;;2.47;1.20;;;-2.50;99.90;;;-143.19;100.00;53775.09;4971073;28;20212;-74
2022/03/10 05:07:42;;;;;;;2.63;1.20;;;-2.50;99.90;;;-143.19;100.00;53775.09;4955684;28;20205;-75
2022/03/10 05:10:11;;;;;;;3.85;1.60;;;-2.60;99.90;;;-143.19;100.00;53775.09;4973078;28;20252;-75
2022/03/10 05:12:50;;;;;;;1.45;0.93;;;-2.60;99.90;;;-143.19;100.00;53775.09;4951926;28;20205;-75
2022/03/10 05:15:30;;;;;;;2.33;1.20;;;-2.60;99.90;;;-143.19;100.00;53775.09;4972759;28;20221;-74
2022/03/10 05:18:04;;;;;;;1.70;0.98;;;-2.60;99.90;;;-143.19;100.00;53775.09;4972015;28;20201;-75
2022/03/10 05:20:35;;;;;;;1.42;0.90;;;-2.50;99.90;;;-143.19;100.00;53775.09;4971683;28;20240;-74
2022/03/10 05:23:05;;;;;;;1.67;1.00;;;-2.50;99.90;;;-143.19;100.00;53775.09;4972174;28;20682;-75
2022/03/10 05:25:40;;;;;;;1.45;0.85;;;-2.50;99.90;;;-143.19;100.00;53775.09;4982045;28;20212;-75
2022/03/10 05:28:14;;;;;;;2.28;1.17;;;-2.60;99.90;;;-143.19;100.00;53775.09;4976225;28;20212;-74
2022/03/10 05:30:45;;;;;;;2.10;1.15;;;-2.50;99.90;;;-143.19;100.00;53775.09;4974283;28;20228;-75
2022/03/10 05:33:13;;;;;;;2.47;1.25;;;-2.60;99.90;;;-143.19;100.00;53775.09;4983674;28;20201;-75
2022/03/10 05:35:41;;;;;;;1.50;0.90;;;-2.60;99.90;;;-143.19;100.00;53775.09;4981813;28;20216;-74
2022/03/10 05:38:09;;;;;;;1.15;0.77;;;-2.70;99.90;;;-143.19;100.00;53775.09;4986579;28;20204;-75
2022/03/10 05:40:37;;;;;;;1.85;1.00;;;-2.60;99.90;;;-143.19;100.00;53775.09;4971680;28;20229;-75
2022/03/10 05:43:05;;;;;;;2.78;1.35;;;-2.70;99.90;;;-143.19;100.00;53775.09;4939169;28;20212;-75
2022/03/10 05:45:33;;;;;;;3.90;3.55;;;-2.70;99.90;;;-143.19;100.00;53775.09;4972510;28;20205;-75
2022/03/10 05:48:01;;;;;;;3.78;3.10;;;-2.70;99.90;;;-143.19;100.00;53775.09;4985385;28;20688;-76
2022/03/10 05:50:29;;;;;;;1.85;1.15;;;-2.70;99.90;;;-143.19;100.00;53775.09;4977675;28;20225;-75
2022/03/10 05:52:57;;;;;;;3.83;1.67;;;-2.60;99.90;;;-143.19;100.00;53775.09;4974126;28;20201;-76
2022/03/10 05:55:26;;;;;;;1.90;1.00;;;-2.70;99.90;;;-143.19;100.00;53775.09;4978686;28;20224;-75
2022/03/10 05:57:54;;;;;;;3.08;1.38;;;-2.60;99.90;;;-143.19;100.00;53775.09;4981117;28;20228;-76
2022/03/10 06:00:23;;;;;;;2.88;1.30;;;-2.50;99.90;;;-143.19;100.00;53775.09;4978188;28;20227;-75
2022/03/10 06:02:52;;;;;;;1.90;1.00;;;-2.50;99.90;;;-143.19;100.00;53775.09;4989964;28;20221;-74
2022/03/10 06:05:20;;;;;;;2.97;1.38;;;-1.50;99.90;;;-143.19;100.00;53775.09;4980068;28;20209;-74
2022/03/10 06:07:49;;;;;;;2.38;1.13;;;-2.50;99.90;;;-143.19;100.00;53775.09;4963302;28;20224;-74
2022/03/10 06:10:17;;;;;;;3.53;1.42;;;-2.50;99.90;;;-143.19;100.00;53775.09;4984871;28;20228;-74
2022/03/10 06:12:45;;;;;;;3.15;1.40;;;-2.50;99.90;;;-143.19;100.00;53775.09;4983624;28;20219;-74
2022/03/10 06:15:13;;;;;;;2.70;1.25;;;-2.50;99.90;;;-143.19;100.00;53775.09;4982738;28;20197;-74
2022/03/10 06:17:41;;;;;;;3.53;1.50;;;-2.50;99.90;;;-143.19;100.00;53775.09;5067433;23;20248;-80
2022/03/10 06:20:11;;;;;;;2.88;1.30;;;-2.60;99.90;;;-143.19;100.00;53775.09;4967975;28;20238;-80
2022/03/10 06:22:39;;;;;;;1.90;1.02;;;-2.40;99.90;;;-143.19;100.00;53775.09;4965950;28;20206;-81
2022/03/10 06:25:09;;;;;;;1.63;0.88;;;-2.40;99.90;;;-143.19;100.00;53775.09;4963177;28;20210;-81
2022/03/10 06:27:38;;;;;;;3.63;1.63;;;-2.40;99.90;;;-143.19;100.00;53775.09;4956955;28;20210;-79
2022/03/10 06:30:07;;;;;;;4.68;1.98;;;-2.30;99.90;;;-143.19;100.00;53775.09;4950378;29;20225;-79
2022/03/10 06:32:35;;;;;;;2.35;1.20;;;-2.10;99.90;;;-143.19;100.00;53775.09;4955097;28;20221;-79
2022/03/10 06:35:03;;;;;;;6.25;2.38;;;-2.10;99.90;;;-143.19;100.00;53775.09;4944135;29;20208;-79
2022/03/10 06:37:31;;;;;;;1.77;0.93;;;-2.20;99.90;;;-143.19;100.00;53775.09;4940487;29;20709;-79
2022/03/10 06:39:59;;;;;;;2.35;1.13;;;-1.40;99.90;;;-143.19;100.00;53775.09;4946958;28;20239;-80
2022/03/10 06:42:30;;;;;;;1.92;0.88;;;-2.10;99.90;;;-143.19;100.00;53775.09;4969811;28;20213;-80
2022/03/10 06:44:58;;;;;;;4.47;1.92;;;-2.10;99.90;;;-143.19;100.00;53775.09;4952440;28;20202;-80
2022/03/10 06:47:26;;;;;;;4.38;1.77;;;-0.70;99.90;;;-143.19;100.00;53775.09;4957155;28;20229;-80
2022/03/10 06:49:54;;;;;;;3.88;1.60;;;-0.50;99.90;;;-143.19;100.00;53775.09;4940067;29;20230;-80
2022/03/10 06:52:22;;;;;;;3.55;1.67;;;-1.10;99.90;;;-143.19;100.00;53775.09;4957642;29;20217;-80
2022/03/10 06:54:50;;;;;;;3.33;1.50;;;-0.20;99.90;;;-143.19;100.00;53775.09;4958441;29;20206;-80
2022/03/10 06:57:18;;;;;;;3.05;1.40;;;-0.30;99.90;;;-143.19;100.00;53775.09;4957173;29;20230;-80
2022/03/10 06:59:46;;;;;;;3.35;1.48;;;-0.40;99.90;;;-143.19;100.00;53775.09;4957514;29;20237;-81
2022/03/10 07:02:17;;;;;;;2.78;1.25;;;-0.10;99.90;;;-143.19;100.00;53775.09;4958744;28;20206;-79
2022/03/10 07:04:45;;;;;;;1.20;0.77;;;0.00;99.90;;;-143.19;100.00;53775.09;4939035;29;20214;-79
2022/03/10 07:07:13;;;;;;;2.67;1.20;;;0.20;99.90;;;-143.19;100.00;53775.09;4939173;29;20217;-79
2022/03/10 07:09:41;;;;;;;3.70;1.50;;;-0.30;99.90;;;-143.19;100.00;53775.09;4952090;29;20238;-80
2022/03/10 07:12:10;;;;;;;3.25;1.48;;;-0.80;99.90;;;-143.19;100.00;53775.09;4942896;28;20210;-79
2022/03/10 07:14:38;;;;;;;3.03;1.25;;;-0.10;99.90;;;-143.19;100.00;53775.09;4938635;29;20217;-79
2022/03/10 07:17:06;;;;;;;2.33;1.10;;;0.30;99.90;;;-143.19;100.00;53775.09;4946921;29;20245;-79
2022/03/10 07:19:35;;;;;;;3.58;1.50;;;0.80;99.90;;;-143.19;100.00;53775.09;4939604;29;20242;-79
2022/03/10 07:22:04;;;;;;;3.45;1.38;;;0.60;99.90;;;-143.19;100.00;53775.09;4943433;29;20206;-79
2022/03/10 07:24:32;;;;;;;3.53;1.60;;;-0.20;99.90;;;-143.19;100.00;53775.09;4921981;29;20202;-79
2022/03/10 07:27:00;;;;;;;3.63;1.50;;;0.90;99.90;;;-143.19;100.00;53775.09;4941641;29;20206;-80
2022/03/10 07:29:28;;;;;;;3.75;1.60;;;0.10;99.90;;;-143.19;100.00;53775.09;4957439;29;20223;-79
2022/03/10 07:31:57;;;;;;;3.53;1.40;;;1.20;99.90;;;-143.19;100.00;53775.09;4957386;29;20210;-79
2022/03/10 07:34:25;;;;;;;5.53;1.83;;;0.20;99.90;;;-143.19;100.00;53775.09;4954313;28;20662;-79
2022/03/10 07:36:53;;;;;;;4.07;1.55;;;1.60;99.90;;;-143.19;100.00;53775.09;4956461;29;20237;-79
2022/03/10 07:39:22;;;;;;;3.85;1.50;;;0.20;99.90;;;-143.19;100.00;53775.09;4934133;29;20226;-80
2022/03/10 07:41:50;;;;;;;3.85;1.50;;;0.30;99.90;;;-143.19;100.00;53775.09;4935091;29;20222;-80
2022/03/10 07:44:18;;;;;;;3.88;1.50;;;1.20;99.90;;;-143.19;100.00;53775.09;4939927;29;20230;-79
2022/03/10 07:46:46;;;;;;;2.97;1.20;;;1.90;99.90;;;-143.19;100.00;53775.09;4949730;28;20206;-80
2022/03/10 07:49:14;;;;;;;3.50;1.35;;;0.40;99.90;;;-143.19;100.00;53775.09;4952583;28;20229;-79
2022/03/10 07:51:44;;;;;;;3.67;1.48;;;1.80;99.90;;;-143.19;100.00;53775.09;4932968;29;20226;-79
2022/03/10 07:54:12;;;;;;;4.10;1.45;;;1.70;99.90;;;-143.19;100.00;53775.09;4942697;28;20220;-79
2022/03/10 07:56:40;;;;;;;4.40;1.65;;;1.80;99.90;;;-143.19;100.00;53775.09;4937541;29;20236;-79
2022/03/10 07:59:09;;;;;;;2.50;1.05;;;1.30;99.90;;;-143.19;100.00;53775.09;4932797;29;20226;-79
2022/03/10 08:01:37;;;;;;;4.35;1.95;;;2.20;99.90;;;-143.19;100.00;53775.09;4943192;29;20202;-79
2022/03/10 08:04:07;;;;;;;3.42;1.35;;;1.90;99.90;;;-143.19;100.00;53775.09;4952412;29;20206;-79
2022/03/10 08:06:35;;;;;;;1.85;0.90;;;1.00;99.90;;;-143.19;100.00;53775.09;4952421;29;20206;-79
2022/03/10 08:09:06;;;;;;;4.40;1.63;;;1.30;99.90;;;-143.19;100.00;53775.09;4953204;29;20234;-79
2022/03/10 08:11:34;;;;;;;3.45;1.40;;;2.70;99.90;;;-143.19;100.00;53775.09;4954276;29;20202;-79
2022/03/10 08:14:03;;;;;;;3.33;1.25;;;1.50;99.90;;;-143.19;100.00;53775.09;4954210;29;20202;-79
2022/03/10 08:16:34;;;;;;;3.58;1.40;;;1.70;99.90;;;-143.19;100.00;53775.09;4954026;28;20221;-79
2022/03/10 08:19:03;;;;;;;4.60;1.75;;;1.80;99.90;;;-143.19;100.00;53775.09;4954396;29;20705;-79
2022/03/10 08:21:31;;;;;;;2.63;1.02;;;2.30;99.90;;;-143.19;100.00;53775.09;4954152;29;20214;-79
2022/03/10 08:23:59;;;;;;;1.65;0.90;;;2.00;99.90;;;-143.19;100.00;53775.09;4952450;29;20206;-79
2022/03/10 08:26:27;;;;;;;4.07;1.60;;;2.10;99.90;;;-143.19;100.00;53775.09;4947156;28;20222;-79
2022/03/10 08:28:55;;;;;;;9.00;2.85;;;2.30;99.90;;;-143.19;100.00;53775.09;4940153;29;20205;-79
2022/03/10 08:31:23;;;;;;;3.20;1.30;;;2.70;99.90;;;-143.19;100.00;53775.09;4949993;29;20202;-79
2022/03/10 08:33:52;;;;;;;1.60;0.80;;;2.70;99.90;;;-143.19;100.00;53775.09;4947139;29;20207;-79
2022/03/10 08:36:20;;;;;;;3.17;1.55;;;2.60;99.90;;;-143.19;100.00;53775.09;4936965;29;20229;-79
2022/03/10 08:38:49;;;;;;;7.15;2.25;;;2.80;99.90;;;-143.19;100.00;53775.09;4934684;29;20625;-79
2022/03/10 08:41:17;;;;;;;4.18;1.55;;;3.00;99.90;;;-143.19;100.00;53775.09;4955708;29;20208;-79
2022/03/10 08:43:45;;;;;;;3.60;1.67;;;3.30;99.90;;;-143.19;100.00;53775.09;4954687;28;20206;-80
2022/03/10 08:46:13;;;;;;;3.75;1.48;;;3.20;99.90;;;-143.19;100.00;53775.09;4956387;29;20198;-80
2022/03/10 08:48:44;;;;;;;5.05;1.83;;;3.30;99.90;;;-143.19;100.00;53775.09;4954464;29;20217;-80
2022/03/10 08:51:12;;;;;;;3.78;1.52;;;3.40;99.90;;;-143.19;100.00;53775.09;4938886;29;20210;-80
2022/03/10 08:53:41;;;;;;;3.08;1.27;;;3.70;99.90;;;-143.19;100.00;53775.09;4938399;29;20206;-79
2022/03/10 08:56:09;;;;;;;2.55;1.27;;;3.80;99.90;;;-143.19;100.00;53775.09;4955329;29;20602;-80
2022/03/10 08:58:37;;;;;;;4.03;1.65;;;3.70;99.90;;;-143.19;100.00;53775.09;4955353;29;20245;-79
2022/03/10 09:01:05;;;;;;;5.95;4.13;;;3.80;99.90;;;-143.19;100.00;53775.09;4950926;29;20215;-79
2022/03/10 09:03:50;;;;;;;5.75;2.08;;;3.90;99.90;;;-143.19;100.00;53775.09;4954078;28;20210;-80
2022/03/10 09:06:19;;;;;;;3.75;1.67;;;4.10;99.90;;;-143.19;100.00;53775.09;4955423;29;20217;-79
2022/03/10 09:08:48;;;;;;;5.88;2.30;;;4.20;99.90;;;-143.19;100.00;53775.09;4953409;29;20218;-80
2022/03/10 09:11:17;;;;;;;3.20;1.45;;;4.30;99.90;;;-143.19;100.00;53775.09;4941504;29;20370;-79
2022/03/10 09:13:48;;;;;;;3.80;1.88;;;4.30;99.90;;;-143.19;100.00;53775.09;4936792;29;20217;-79
2022/03/10 09:16:21;;;;;;;3.72;1.55;;;4.70;99.90;;;-143.19;100.00;53775.09;4953680;29;20206;-80
2022/03/10 09:18:49;;;;;;;5.85;2.38;;;4.90;99.90;;;-143.19;100.00;53775.09;4954142;29;20229;-79
2022/03/10 09:21:18;;;;;;;3.20;1.50;;;4.80;99.90;;;-143.19;100.00;53775.09;4936556;29;20202;-79
2022/03/10 09:23:46;;;;;;;3.17;1.55;;;4.80;99.90;;;-143.19;100.00;53775.09;4927695;29;20218;-80
2022/03/10 09:26:15;;;;;;;2.47;1.25;;;5.00;99.90;;;-143.19;100.00;53775.09;4935003;29;20213;-80
2022/03/10 09:28:44;;;;;;;3.28;1.63;;;5.10;99.90;;;-143.19;100.00;53775.09;4936234;29;20211;-80
2022/03/10 09:31:16;;;;;;;2.92;1.45;;;5.20;99.90;;;-143.19;100.00;53775.09;4926815;29;20202;-80
2022/03/10 09:33:45;;;;;;;2.78;1.40;;;5.30;99.90;;;-143.19;100.00;53775.09;4953726;28;20208;-80
2022/03/10 09:36:14;;;;;;;1.08;0.65;;;5.40;99.90;;;-143.19;100.00;53775.09;4956569;29;20198;-80
2022/03/10 09:38:43;;;;;;;3.22;1.42;;;5.50;99.90;;;-143.19;100.00;53775.09;4939604;29;20228;-80
2022/03/10 09:41:12;;;;;;;1.50;0.93;;;5.50;99.90;;;-143.19;100.00;53775.09;4957371;29;20205;-80
2022/03/10 09:43:42;;;;;;;2.97;1.30;;;5.60;99.90;;;-143.19;100.00;53775.09;4949879;28;20683;-80
2022/03/10 09:46:10;;;;;;;2.30;1.10;;;5.80;99.90;;;-143.19;100.00;53775.09;4939428;29;20206;-80
2022/03/10 09:48:39;;;;;;;2.90;1.42;;;6.00;99.90;;;-143.19;100.00;53775.09;4956676;29;20217;-80
2022/03/10 09:51:09;;;;;;;2.42;1.10;;;6.10;99.90;;;-143.19;100.00;53775.09;4945166;29;20682;-80
2022/03/10 09:53:38;;;;;;;2.33;1.15;;;6.20;99.90;;;-143.19;100.00;53775.09;4957176;29;20214;-80
2022/03/10 09:56:07;;;;;;;2.67;1.25;;;6.30;99.90;;;-143.19;100.00;53775.09;4943325;29;20206;-80
2022/03/10 09:58:35;;;;;;;2.38;1.17;;;;;;;-143.19;100.00;53775.09;4958477;29;20229;-80
2022/03/10 10:01:08;;;;;;;2.75;1.23;;;6.70;99.90;;;-143.19;100.00;53775.09;4956865;29;20241;-80
2022/03/10 10:03:36;;;;;;;2.90;1.30;;;;;;;-143.19;100.00;53775.09;4956984;29;20217;-80
2022/03/10 10:06:06;;;;;;;2.80;1.30;;;;;;;-143.19;100.00;53775.09;4956476;29;20198;-80
2022/03/10 10:08:36;;;;;;;2.55;1.20;;;7.10;99.90;;;-143.19;100.00;53775.09;4956634;29;20209;-80
2022/03/10 10:11:05;;;;;;;3.78;1.55;;;7.30;99.90;;;-143.19;100.00;53775.09;4956163;29;20230;-80
2022/03/10 10:13:43;;;;;;;1.42;1.02;;;7.40;99.90;;;-143.19;100.00;53775.09;4939383;29;20202;-80
2022/03/10 10:16:14;;;;;;;3.13;1.35;;;7.60;99.90;;;-143.19;100.00;53775.09;4952186;29;20206;-80